LIPH/TSF METAR and TAF weather

Enter ICAO airport designator
Station Type Date Time Source
LIPH METAR 2022/01/29 12:50 UTC NOAA

LIPH 291250Z 16003KT 110V210 CAVOK 11/M01 Q1029


Station Type Date Time Source
LIPH Decoded METAR 2022/01/29 12:50 UTC NOAA

Treviso / S. Angelo, Italy (LIPH) 45-39N 012-11E 23M
Jan 29, 2022 - 07:50 AM EST / 2022.01.29 1250 UTC
Wind: from the SSE (160 degrees) at 3 MPH (3 KT) (direction variable):0
Visibility: greater than 7 mile(s):0
Temperature: 51 F (11 C)
Dew Point: 30 F (-1 C)
Relative Humidity: 43%
Pressure (altimeter): 30.39 in. Hg (1029 hPa)
ob: LIPH 291250Z 16003KT 110V210 CAVOK 11/M01 Q1029
cycle: 13

Station Type Date Time Source
LIPH TAF 2022/01/29 12:25 UTC NOAA

TAF LIPH 291100Z 2912/3012 VRB05KT 9000 NSC
BECMG 2922/2924 4000 BR PROB30
TEMPO 3001/3006 2000 BCFG
BECMG 3007/3009 6000

Example: see airport list